Thornton, Arkansas
Current Conditions -  °F | °C
As of 1:35 AM on Thursday 23 Oct 2014 (Local Time) from KCDH Reporting Station
Haze Haze  
Wind Chill: 45°   Ceiling: Unl
Heat Index: 45°   Visibility: 5mi
Dew Point: 43°   Wind: 0mph
Humidity: 93%   Direction: NA
Pressure: 30.17"   Gusts: NA
Location:  33.78°N, 92.49°W
Report Text: KCDH 230635Z AUTO 00000KT 5SM BR CLR 07/06 A3017 RMK AO2
Loading
Personal Weather Stations






























Interactive Weather Map
Tropical Storm Tracking
New forecast layout! Learn more

10-Day Weather Forecast

Advertisements
Track Severe Weather on mobile